Time;durP1;ratioP1;P1;durP2;ratioP2;P2;SDS_P1;SDS_P2;PMS_P1;PMS_P2;Temp;Humidity;BMP_temperature;BMP_pressure;BME280_temperature;BME280_humidity;BME280_pressure;Samples;Min_cycle;Max_cycle;Signal;HPM_P1;HPM_P2
2024/02/20 00:01:04;;;;;;;2.80;2.65;;;;;;;1.40;100.00;101404.91;5067578;28;20060;-79
2024/02/20 00:03:30;;;;;;;1.25;1.20;;;;;;;2.08;100.00;101490.44;5073222;28;20116;-79
2024/02/20 00:05:55;;;;;;;0.38;0.38;;;;;;;1.80;100.00;101444.13;5070099;28;20032;-78
2024/02/20 00:08:21;;;;;;;0.95;0.85;;;;;;;1.84;100.00;101492.59;5076650;28;20447;-80
2024/02/20 00:10:46;;;;;;;0.30;0.30;;;;;;;1.58;100.00;101478.28;5060983;28;20072;-78
2024/02/20 00:13:12;;;;;;;4.28;4.07;;;;;;;1.70;100.00;101498.75;5073291;28;20071;-80
2024/02/20 00:15:39;;;;;;;0.30;0.30;;;;;;;0.79;100.00;101369.78;5078879;28;20377;-80
2024/02/20 00:18:05;;;;;;;0.30;0.30;;;;;;;1.29;100.00;101473.25;5078557;28;20490;-78
2024/02/20 00:20:30;;;;;;;0.40;0.40;;;;;;;1.51;100.00;101498.59;5065790;28;20043;-79
2024/02/20 00:22:56;;;;;;;0.40;0.40;;;;;;;1.01;100.00;101395.09;5082295;28;20719;-79
2024/02/20 00:25:22;;;;;;;0.90;0.88;;;;;;;1.03;100.00;101387.41;5080983;28;20403;-79
2024/02/20 00:27:47;;;;;;;0.60;0.60;;;;;;;1.05;100.00;101401.31;5081205;28;20051;-76
2024/02/20 00:30:13;;;;;;;0.77;0.77;;;;;;;0.87;100.00;101383.13;5084734;28;20052;-79
2024/02/20 00:32:38;;;;;;;0.40;0.40;;;;;;;1.72;100.00;101471.28;5084134;28;20230;-81
2024/02/20 00:35:05;;;;;;;3.22;3.08;;;;;;;1.35;100.00;101456.38;5068156;28;20113;-80
2024/02/20 00:37:31;;;;;;;0.93;0.88;;;;;;;0.86;100.00;101393.38;5083188;28;20044;-80
2024/02/20 00:39:57;;;;;;;0.30;0.30;;;;;;;1.24;100.00;101466.16;5078662;28;20156;-78
2024/02/20 00:42:22;;;;;;;3.50;3.30;;;;;;;1.12;100.00;101433.56;5071477;28;20123;-80
2024/02/20 00:44:48;;;;;;;3.00;2.90;;;;;;;1.32;100.00;101474.31;5075283;28;20161;-81
2024/02/20 00:47:14;;;;;;;0.40;0.40;;;;;;;0.87;100.00;101372.78;5079154;28;20043;-81
2024/02/20 00:49:40;;;;;;;0.47;0.47;;;;;;;1.24;100.00;101460.06;5082381;28;20113;-81
2024/02/20 00:52:06;;;;;;;3.92;1.20;;;;;;;0.62;100.00;101378.28;5081146;28;20407;-79
2024/02/20 00:54:32;;;;;;;0.30;0.30;;;;;;;0.60;100.00;101374.72;5064448;28;20036;-79
2024/02/20 00:56:57;;;;;;;2.60;2.50;;;;;;;1.35;100.00;101494.28;5083391;28;20131;-78
2024/02/20 00:59:23;;;;;;;20.58;11.90;;;;;;;1.24;100.00;101478.16;5074658;28;20143;-82
2024/02/20 01:01:50;;;;;;;1.70;1.60;;;;;;;0.72;100.00;101369.34;5079320;28;20172;-81
2024/02/20 01:04:16;;;;;;;2.25;2.15;;;;;;;0.55;100.00;101379.63;5081513;28;20032;-79
2024/02/20 01:06:42;;;;;;;0.90;0.90;;;;;;;0.77;100.00;101396.31;5077761;28;20048;-79
2024/02/20 01:09:08;;;;;;;0.93;0.93;;;;;;;0.44;100.00;101359.19;5079549;28;20020;-80
2024/02/20 01:11:34;;;;;;;6.55;6.20;;;;;;;1.12;100.00;101496.47;5057167;28;20403;-81
2024/02/20 01:14:00;;;;;;;1.60;1.50;;;;;;;0.50;100.00;101351.81;5079475;28;20044;-82
2024/02/20 01:16:26;;;;;;;0.73;0.73;;;;;;;0.20;100.00;101359.59;5077452;28;20040;-81
2024/02/20 01:18:51;;;;;;;0.20;0.20;;;;;;;0.82;100.00;101487.91;5075284;28;20044;-80
2024/02/20 01:21:17;;;;;;;1.15;1.15;;;;;;;0.18;100.00;101349.16;5074683;28;20067;-81
2024/02/20 01:23:43;;;;;;;5.57;2.75;;;;;;;0.38;100.00;101399.34;5065358;28;20040;-81
2024/02/20 01:26:09;;;;;;;0.32;0.32;;;;;;;0.02;100.00;101337.88;5081003;28;20044;-79
2024/02/20 01:28:34;;;;;;;1.10;1.10;;;;;;;0.68;100.00;101455.22;5082988;28;20135;-80
2024/02/20 01:30:59;;;;;;;0.30;0.30;;;;;;;0.75;100.00;101458.25;5075032;28;20615;-82
2024/02/20 01:33:25;;;;;;;0.50;0.50;;;;;;;0.98;100.00;101474.13;5079949;28;20051;-81
2024/02/20 01:35:50;;;;;;;0.57;0.57;;;;;;;0.32;100.00;101344.78;5080756;28;20105;-83
2024/02/20 01:38:16;;;;;;;0.73;0.73;;;;;;;1.09;100.00;101465.28;5077062;28;20067;-80
2024/02/20 01:40:42;;;;;;;0.40;0.40;;;;;;;0.93;100.00;101453.22;5076801;28;20125;-80
2024/02/20 01:43:08;;;;;;;2.78;2.67;;;;;;;0.98;100.00;101449.22;5077153;28;20051;-81
2024/02/20 01:45:37;;;;;;;1.83;1.73;;;;;;;1.20;100.00;101451.25;5080638;28;20522;-80
2024/02/20 01:48:04;;;;;;;0.65;0.65;;;;;;;0.37;100.00;101364.00;5080803;28;20081;-82
2024/02/20 01:50:34;;;;;;;0.40;0.40;;;;;;;0.47;100.00;101351.59;5079304;28;20109;-80
2024/02/20 01:53:04;;;;;;;1.25;1.15;;;;;;;0.53;100.00;101359.72;5060662;28;20710;-85
2024/02/20 01:55:32;;;;;;;0.57;0.57;;;;;;;0.24;100.00;101312.50;5067072;28;20047;-81
2024/02/20 01:57:58;;;;;;;8.13;7.70;;;;;;;1.12;100.00;101449.06;5079344;28;20500;-80
2024/02/20 02:00:23;;;;;;;0.85;0.85;;;;;;;1.04;100.00;101421.09;5079369;28;20037;-80
2024/02/20 02:02:49;;;;;;;0.40;0.40;;;;;;;0.82;100.00;101415.56;5079453;28;20032;-81
2024/02/20 02:05:15;;;;;;;2.25;2.05;;;;;;;0.44;100.00;101349.75;5056971;28;20157;-79
2024/02/20 02:07:40;;;;;;;2.70;2.58;;;;;;;1.09;100.00;101417.88;5075831;28;20048;-80
2024/02/20 02:10:07;;;;;;;0.30;0.30;;;;;;;0.83;100.00;101345.88;5058867;28;20147;-81
2024/02/20 02:12:32;;;;;;;0.82;0.82;;;;;;;0.87;100.00;101374.47;5081594;28;26054;-79
2024/02/20 02:14:58;;;;;;;0.50;0.50;;;;;;;0.49;100.00;101327.69;5072848;28;20429;-78
2024/02/20 02:17:23;;;;;;;0.65;0.65;;;;;;;0.64;100.00;101314.72;5091435;28;20056;-77
2024/02/20 02:19:49;;;;;;;0.40;0.40;;;;;;;0.88;100.00;101428.81;5079240;28;20416;-81
2024/02/20 02:22:15;;;;;;;2.97;2.80;;;;;;;0.78;100.00;101403.28;5073430;28;20201;-78
2024/02/20 02:24:41;;;;;;;0.80;0.80;;;;;;;0.93;100.00;101414.44;5071147;28;20063;-79
2024/02/20 02:27:07;;;;;;;0.47;0.47;;;;;;;0.60;100.00;101361.81;5060510;28;20059;-78
2024/02/20 02:29:32;;;;;;;0.70;0.70;;;;;;;0.67;100.00;101401.78;5066797;28;20103;-80
2024/02/20 02:31:58;;;;;;;0.30;0.30;;;;;;;0.22;100.00;101319.28;5077424;28;20510;-77
2024/02/20 02:34:27;;;;;;;1.25;1.17;;;;;;;0.28;100.00;101324.78;5048797;28;20055;-79
2024/02/20 02:36:53;;;;;;;2.50;2.40;;;;;;;1.05;100.00;101435.81;5057755;28;20082;-78
2024/02/20 02:39:20;;;;;;;1.05;1.05;;;;;;;0.97;100.00;101400.91;5073407;28;20035;-79
2024/02/20 02:41:46;;;;;;;0.30;0.30;;;;;;;0.57;100.00;101328.97;5075930;28;20418;-78
2024/02/20 02:44:12;;;;;;;0.50;0.50;;;;;;;0.29;100.00;101307.59;5057214;28;20044;-80
2024/02/20 02:46:37;;;;;;;8.57;7.97;;;;;;;1.24;100.00;101435.13;5078538;28;20039;-80
2024/02/20 02:49:03;;;;;;;0.30;0.30;;;;;;;0.83;100.00;101430.25;5078509;28;20052;-77
2024/02/20 02:51:28;;;;;;;0.50;0.50;;;;;;;1.15;100.00;101424.28;5078249;28;20028;-80
2024/02/20 02:53:54;;;;;;;4.32;4.13;;;;;;;0.67;100.00;101371.69;5084535;28;20060;-79
2024/02/20 02:56:22;;;;;;;0.68;0.68;;;;;;;0.78;100.00;101378.34;5076018;28;20063;-79
2024/02/20 02:58:49;;;;;;;0.38;0.38;;;;;;;0.51;100.00;101407.78;5076536;28;20047;-77
2024/02/20 03:01:14;;;;;;;4.20;4.00;;;;;;;0.70;100.00;101413.16;5074935;28;20052;-78
2024/02/20 03:03:40;;;;;;;0.60;0.60;;;;;;;0.15;100.00;101299.97;5070616;28;20047;-79
2024/02/20 03:06:09;;;;;;;3.58;3.38;;;;;;;0.15;100.00;101342.97;5077665;28;20479;-77
2024/02/20 03:08:38;;;;;;;5.90;5.57;;;;;;;0.68;100.00;101431.97;5052528;28;20044;-79
2024/02/20 03:11:07;;;;;;;0.30;0.30;;;;;;;0.91;100.00;101405.72;5070341;28;20079;-78
2024/02/20 03:13:33;;;;;;;0.73;0.73;;;;;;;1.27;100.00;101434.41;5071323;28;20518;-76
2024/02/20 03:16:05;;;;;;;1.65;1.55;;;;;;;0.82;100.00;101333.78;5083473;28;20403;-78
2024/02/20 03:18:32;;;;;;;0.90;0.90;;;;;;;1.30;100.00;101426.78;5082992;28;20031;-79
2024/02/20 03:21:09;;;;;;;2.35;2.25;;;;;;;1.26;100.00;101436.09;5082396;28;20910;-78
2024/02/20 03:23:35;;;;;;;1.00;0.90;;;;;;;0.81;100.00;101320.78;5082607;28;20503;-77
2024/02/20 03:26:03;;;;;;;0.93;0.93;;;;;;;1.34;100.00;101410.66;5082738;28;20051;-76
2024/02/20 03:28:29;;;;;;;0.47;0.47;;;;;;;0.02;100.00;101301.78;5068582;28;20109;-77
2024/02/20 03:30:55;;;;;;;1.55;1.45;;;;;;;0.62;100.00;101425.66;5057560;28;20068;-79
2024/02/20 03:33:25;;;;;;;2.78;2.67;;;;;;;0.48;100.00;101400.75;5046391;28;20054;-77
2024/02/20 03:35:52;;;;;;;0.40;0.40;;;;;;;0.58;100.00;101420.25;5079850;28;20748;-78
2024/02/20 03:38:17;;;;;;;1.95;1.85;;;;;;;0.11;100.00;101312.59;5071784;28;20052;-77
2024/02/20 03:40:43;;;;;;;0.40;0.40;;;;;;;0.20;100.00;101334.66;5076218;28;20523;-78
2024/02/20 03:43:09;;;;;;;0.75;0.52;;;;;;;0.32;100.00;101383.50;5078062;28;20135;-78
2024/02/20 03:45:35;;;;;;;0.55;0.55;;;;;;;0.81;100.00;101422.41;5076993;28;20637;-78
2024/02/20 03:48:00;;;;;;;0.40;0.40;;;;;;;0.32;100.00;101337.03;5080141;28;20058;-76
2024/02/20 03:50:26;;;;;;;2.05;1.95;;;;;;;-0.02;100.00;101301.59;5080858;28;20477;-76
2024/02/20 03:52:52;;;;;;;0.70;0.70;;;;;;;-0.01;100.00;101354.09;5061271;28;20043;-76
2024/02/20 03:55:18;;;;;;;0.77;0.70;;;;;;;-0.10;100.00;101310.56;5084509;28;20052;-76
2024/02/20 03:57:43;;;;;;;1.08;1.05;;;;;;;0.53;100.00;101424.25;5080957;28;20040;-79
2024/02/20 04:00:11;;;;;;;0.70;0.68;;;;;;;0.19;100.00;101335.47;5069900;28;20093;-82
2024/02/20 04:02:40;;;;;;;1.40;1.38;;;;;;;0.05;100.00;101314.84;5075077;28;20076;-78
2024/02/20 04:05:13;;;;;;;0.30;0.30;;;;;;;0.62;100.00;101417.91;5082918;28;20048;-81
2024/02/20 04:07:39;;;;;;;0.50;0.50;;;;;;;-0.25;100.00;101320.91;5082610;28;20048;-79
2024/02/20 04:10:09;;;;;;;0.30;0.30;;;;;;;0.27;100.00;101422.78;5081782;28;20053;-77
2024/02/20 04:12:35;;;;;;;3.58;3.38;;;;;;;0.27;100.00;101408.16;5084408;28;20051;-80
2024/02/20 04:15:05;;;;;;;0.50;0.50;;;;;;;-0.37;100.00;101299.56;5086414;28;20097;-77
2024/02/20 04:17:32;;;;;;;0.68;0.68;;;;;;;0.65;100.00;101437.84;5083510;28;20615;-78
2024/02/20 04:20:03;;;;;;;0.98;0.88;;;;;;;0.09;100.00;101328.00;5084750;28;20491;-78
2024/02/20 04:22:32;;;;;;;0.52;0.52;;;;;;;0.81;100.00;101431.88;5067172;28;20199;-79
2024/02/20 04:25:01;;;;;;;0.40;0.40;;;;;;;-0.09;100.00;101309.78;5067763;28;20048;-82
2024/02/20 04:27:27;;;;;;;2.38;2.28;;;;;;;0.52;100.00;101428.53;5091759;28;20032;-83
2024/02/20 04:29:53;;;;;;;1.20;1.20;;;;;;;-0.21;100.00;101314.25;5085196;28;20031;-81
2024/02/20 04:32:19;;;;;;;0.50;0.50;;;;;;;0.23;100.00;101410.47;5057706;28;20056;-79
2024/02/20 04:34:45;;;;;;;0.43;0.43;;;;;;;0.64;100.00;101428.34;5067033;28;20045;-80
2024/02/20 04:37:11;;;;;;;0.50;0.50;;;;;;;0.66;100.00;101388.00;5054335;28;20524;-80
2024/02/20 04:39:36;;;;;;;1.40;1.30;;;;;;;0.90;100.00;101410.81;5062377;28;20285;-79
2024/02/20 04:42:02;;;;;;;0.60;0.60;;;;;;;0.96;100.00;101406.88;5072824;28;20559;-78
2024/02/20 04:44:30;;;;;;;0.63;0.40;;;;;;;0.58;100.00;101337.59;5069706;28;20048;-80
2024/02/20 04:46:56;;;;;;;0.70;0.70;;;;;;;1.20;100.00;101422.84;5058274;28;20147;-80
2024/02/20 04:49:22;;;;;;;4.13;3.90;;;;;;;1.19;100.00;101413.28;5065122;28;20131;-79
2024/02/20 04:51:47;;;;;;;0.88;0.88;;;;;;;0.84;100.00;101331.28;5069204;28;20102;-81
2024/02/20 04:54:14;;;;;;;0.35;0.35;;;;;;;0.72;100.00;101312.53;5073889;28;20082;-79
2024/02/20 04:56:40;;;;;;;0.60;0.60;;;;;;;1.07;100.00;101385.91;5069866;28;20059;-83
2024/02/20 04:59:06;;;;;;;0.63;0.63;;;;;;;1.18;100.00;101390.84;5055302;28;20539;-80
2024/02/20 05:01:31;;;;;;;0.40;0.40;;;;;;;1.23;100.00;101414.34;5062825;28;20135;-81
2024/02/20 05:03:57;;;;;;;5.00;4.78;;;;;;;0.89;100.00;101342.78;5049056;28;20400;-80
2024/02/20 05:06:23;;;;;;;1.95;1.85;;;;;;;0.79;100.00;101372.34;5050224;28;20438;-80
2024/02/20 05:08:49;;;;;;;1.50;1.50;;;;;;;0.53;100.00;101306.38;5039373;28;20450;-79
2024/02/20 05:11:16;;;;;;;1.33;1.27;;;;;;;1.00;100.00;101415.69;5050690;28;20044;-80
2024/02/20 05:13:41;;;;;;;0.75;0.75;;;;;;;0.48;100.00;101323.31;5062192;28;20755;-78
2024/02/20 05:16:07;;;;;;;3.70;1.75;;;;;;;0.87;100.00;101401.22;5059908;28;20064;-80
2024/02/20 05:18:33;;;;;;;0.40;0.40;;;;;;;0.58;100.00;101314.38;5057490;28;20872;-80
2024/02/20 05:20:58;;;;;;;0.85;0.85;;;;;;;1.35;100.00;101425.34;5063502;28;20107;-82
2024/02/20 05:23:24;;;;;;;0.50;0.50;;;;;;;1.27;100.00;101403.38;5051619;28;20114;-83
2024/02/20 05:25:50;;;;;;;0.98;0.98;;;;;;;0.73;100.00;101311.75;5073443;28;20446;-83
2024/02/20 05:28:18;;;;;;;0.95;0.95;;;;;;;0.81;100.00;101316.50;5072997;28;20468;-83
2024/02/20 05:30:44;;;;;;;0.55;0.55;;;;;;;1.48;100.00;101414.84;5061229;28;20049;-81
2024/02/20 05:33:10;;;;;;;1.42;1.33;;;;;;;1.56;100.00;101415.25;5072729;28;20051;-81
2024/02/20 05:35:36;;;;;;;0.30;0.30;;;;;;;1.40;100.00;101429.06;5070365;28;20051;-81
2024/02/20 05:38:05;;;;;;;2.40;2.28;;;;;;;0.84;100.00;101324.44;5065734;28;20122;-81
2024/02/20 05:40:31;;;;;;;2.15;2.05;;;;;;;1.69;100.00;101420.25;5067109;28;20078;-80
2024/02/20 05:42:56;;;;;;;0.60;0.60;;;;;;;1.31;100.00;101337.19;5065673;28;20113;-82
2024/02/20 05:45:22;;;;;;;0.20;0.20;;;;;;;2.05;100.00;101438.47;5064539;28;20037;-80
2024/02/20 05:47:47;;;;;;;3.08;2.88;;;;;;;1.56;100.00;101345.41;5060343;28;20136;-81
2024/02/20 05:50:13;;;;;;;2.40;2.30;;;;;;;2.26;100.00;101453.31;5069438;28;20493;-81
2024/02/20 05:52:39;;;;;;;0.50;0.50;;;;;;;2.18;100.00;101433.91;5069568;28;20079;-80
2024/02/20 05:55:06;;;;;;;2.38;2.28;;;;;;;2.04;100.00;101452.25;5047525;28;20032;-79
2024/02/20 05:57:31;;;;;;;3.35;2.05;;;;;;;2.23;100.00;101415.22;5063859;28;20047;-77
2024/02/20 05:59:57;;;;;;;0.30;0.30;;;;;;;2.49;100.00;101444.13;5049606;28;20028;-80
2024/02/20 06:02:23;;;;;;;5.15;4.80;;;;;;;2.25;100.00;101392.91;5060686;28;20048;-82
2024/02/20 06:04:50;;;;;;;2.75;2.65;;;;;;;2.44;100.00;101450.78;5066214;28;20089;-79
2024/02/20 06:07:15;;;;;;;0.30;0.30;;;;;;;2.04;100.00;101444.47;5073767;28;20056;-79
2024/02/20 06:09:43;;;;;;;4.25;3.88;;;;;;;1.49;100.00;101358.84;5060915;28;20168;-80
2024/02/20 06:12:09;;;;;;;0.55;0.55;;;;;;;1.41;100.00;101361.03;5056966;28;20032;-78
2024/02/20 06:14:36;;;;;;;16.25;14.90;;;;;;;1.42;100.00;101448.13;5044255;28;20057;-77
2024/02/20 06:17:01;;;;;;;0.75;0.75;;;;;;;1.46;100.00;101490.56;5063615;28;20044;-77
2024/02/20 06:19:27;;;;;;;10.10;9.38;;;;;;;0.58;100.00;101347.94;5066176;28;20145;-79
2024/02/20 06:21:52;;;;;;;4.13;3.92;;;;;;;1.60;100.00;101501.66;5056324;28;20067;-79
2024/02/20 06:24:18;;;;;;;3.75;3.45;;;;;;;1.64;100.00;101483.81;5063652;28;20559;-80
2024/02/20 06:26:44;;;;;;;1.02;1.02;;;;;;;1.65;100.00;101487.28;5054334;28;20031;-80
2024/02/20 06:29:11;;;;;;;3.03;2.83;;;;;;;1.65;100.00;101502.81;5039504;28;20507;-80
2024/02/20 06:31:38;;;;;;;0.90;0.90;;;;;;;1.56;100.00;101489.38;5059791;28;20060;-79
2024/02/20 06:34:06;;;;;;;1.90;1.80;;;;;;;1.65;100.00;101475.22;5060661;28;20044;-78
2024/02/20 06:36:32;;;;;;;1.00;1.00;;;;;;;1.44;100.00;101471.50;5053422;28;20472;-80
2024/02/20 06:38:58;;;;;;;3.97;3.72;;;;;;;1.23;100.00;101383.31;5078227;28;20103;-80
2024/02/20 06:41:24;;;;;;;0.35;0.35;;;;;;;2.19;100.00;101501.31;5062824;28;20058;-79
2024/02/20 06:43:49;;;;;;;0.45;0.45;;;;;;;1.69;100.00;101497.00;5080197;28;20051;-84
2024/02/20 06:46:15;;;;;;;13.73;11.48;;;;;;;0.84;100.00;101382.94;5076805;28;20189;-84
2024/02/20 06:48:43;;;;;;;17.17;5.53;;;;;;;1.33;100.00;101463.16;5075969;28;20682;-81
2024/02/20 06:51:12;;;;;;;1.15;1.15;;;;;;;1.68;100.00;101487.44;5055433;28;20035;-82
2024/02/20 06:53:37;;;;;;;2.30;2.20;;;;;;;1.86;100.00;101508.22;5073488;28;20056;-85
2024/02/20 06:56:03;;;;;;;0.52;0.52;;;;;;;1.73;100.00;101483.38;5076161;28;20047;-81
2024/02/20 06:58:29;;;;;;;1.38;1.33;;;;;;;1.80;100.00;101462.22;5071518;28;20504;-82
2024/02/20 07:00:55;;;;;;;4.30;4.10;;;;;;;2.36;100.00;101511.66;5076535;28;20044;-86
2024/02/20 07:03:22;;;;;;;1.83;1.77;;;;;;;2.48;100.00;101488.94;5079618;28;20035;-86
2024/02/20 07:05:47;;;;;;;2.63;1.65;;;;;;;2.45;100.00;101476.75;5084685;28;20147;-86
2024/02/20 07:08:13;;;;;;;4.53;4.32;;;;;;;2.01;100.00;101402.88;5075306;28;20167;-88
2024/02/20 07:10:39;;;;;;;13.57;12.48;;;;;;;2.94;100.00;101491.22;5072469;28;20135;-84
2024/02/20 07:13:05;;;;;;;17.40;12.95;;;;;;;2.86;100.00;101417.41;5082789;28;20155;-85
2024/02/20 07:15:31;;;;;;;2.00;1.90;;;;;;;2.60;100.00;101403.16;5093187;28;20040;-81
2024/02/20 07:17:57;;;;;;;0.45;0.45;;;;;;;3.01;100.00;101401.66;5086655;28;20041;-78
2024/02/20 07:20:23;;;;;;;3.20;3.10;;;;;;;3.08;100.00;101399.44;5106425;28;20028;-82
2024/02/20 07:22:49;;;;;;;0.45;0.45;;;;;;;3.77;100.00;101475.22;5107521;28;20043;-80
2024/02/20 07:25:18;;;;;;;0.90;0.90;;;;;;;3.46;100.00;101459.94;5108795;28;20107;-87
2024/02/20 07:27:44;;;;;;;3.47;3.28;;;;;;;3.65;100.00;101484.13;5087292;28;20503;-87
2024/02/20 07:30:10;;;;;;;0.40;0.40;;;;;;;3.87;100.00;101468.72;5090424;28;20103;-87
2024/02/20 07:32:36;;;;;;;1.40;1.30;;;;;;;4.26;100.00;101485.94;5069400;28;20045;-84
2024/02/20 07:35:02;;;;;;;0.95;0.95;;;;;;;3.82;100.00;101369.00;5068488;28;20044;-82
2024/02/20 07:37:28;;;;;;;10.70;4.80;;;;;;;3.78;100.00;101338.50;5047874;28;20052;-87
2024/02/20 07:39:54;;;;;;;4.03;3.65;;;;;;;4.44;100.00;101437.38;5044551;28;20075;-90
2024/02/20 07:42:19;;;;;;;4.55;4.35;;;;;;;4.78;100.00;101430.94;5067910;28;20036;-86
2024/02/20 07:44:45;;;;;;;0.43;0.43;;;;;;;4.41;100.00;101351.50;5072397;28;20029;-90
2024/02/20 07:47:10;;;;;;;13.10;5.07;;;;;;;5.14;100.00;101426.28;5066318;28;20044;-87
2024/02/20 07:49:36;;;;;;;0.38;0.38;;;;;;;4.68;100.00;101336.09;5072855;28;20059;-88
2024/02/20 07:52:02;;;;;;;5.60;5.25;;;;;;;4.70;100.00;101342.25;5066422;28;20058;-89
2024/02/20 07:54:31;;;;;;;2.38;1.75;;;;;;;5.23;100.00;101423.16;5065967;28;20059;-90
2024/02/20 07:56:56;;;;;;;3.22;3.03;;;;;;;4.91;100.00;101313.56;5056664;28;20044;-86
2024/02/20 07:59:23;;;;;;;8.95;8.55;;;;;;;5.05;100.00;101317.56;5058761;28;20048;-84
2024/02/20 08:01:52;;;;;;;0.77;0.77;;;;;;;5.13;100.00;101320.47;5046019;28;20052;-87
2024/02/20 08:04:22;;;;;;;0.40;0.40;;;;;;;5.21;100.00;101336.34;5069015;28;20052;-85
2024/02/20 08:06:48;;;;;;;0.55;0.55;;;;;;;5.95;100.00;101430.13;5066460;28;20441;-84
2024/02/20 08:09:14;;;;;;;0.57;0.57;;;;;;;5.45;100.00;101323.31;5065692;28;20044;-91
2024/02/20 08:11:40;;;;;;;0.70;0.70;;;;;;;6.04;100.00;101422.63;5062120;28;20818;-87
2024/02/20 08:14:05;;;;;;;0.45;0.45;;;;;;;5.70;100.00;101331.16;5059900;28;20489;-88
2024/02/20 08:16:31;;;;;;;0.40;0.40;;;;;;;5.74;100.00;101345.19;5061755;28;20057;-90
2024/02/20 08:18:57;;;;;;;2.17;0.88;;;;;;;6.07;100.00;101389.78;5059433;28;20049;-88
2024/02/20 08:21:23;;;;;;;0.45;0.45;;;;;;;6.18;100.00;101402.25;5055340;28;20044;-90
2024/02/20 08:23:49;;;;;;;1.15;1.15;;;;;;;5.81;100.00;101325.47;5066243;28;20036;-88
2024/02/20 08:26:15;;;;;;;2.05;1.95;;;;;;;6.35;100.00;101390.69;5062543;28;20511;-88
2024/02/20 08:28:41;;;;;;;0.63;0.63;;;;;;;6.17;100.00;101348.41;5058557;28;20045;-84
2024/02/20 08:31:08;;;;;;;2.65;2.50;;;;;;;6.50;100.00;101411.16;5057087;28;20082;-81
2024/02/20 08:33:35;;;;;;;0.40;0.40;;;;;;;5.92;100.00;101331.91;5069843;28;20063;-87
2024/02/20 08:36:02;;;;;;;9.57;9.10;;;;;;;6.75;100.00;101412.84;5081988;28;20035;-85
2024/02/20 08:38:27;;;;;;;0.73;0.73;;;;;;;6.77;100.00;101387.69;5063461;28;20148;-87
2024/02/20 08:40:53;;;;;;;1.00;0.95;;;;;;;6.70;100.00;101357.06;5078429;28;20701;-83
2024/02/20 08:43:18;;;;;;;0.85;0.85;;;;;;;6.59;100.00;101320.19;5082844;28;20043;-88
2024/02/20 08:45:45;;;;;;;1.05;1.00;;;;;;;7.22;100.00;101410.81;5070042;28;20533;-91
2024/02/20 08:48:10;;;;;;;3.67;1.60;;;;;;;6.90;100.00;101396.78;5064911;28;20043;-88
2024/02/20 08:50:36;;;;;;;1.85;1.75;;;;;;;6.82;100.00;101348.72;5083688;28;20100;-86
2024/02/20 08:53:07;;;;;;;0.40;0.40;;;;;;;7.22;100.00;101412.53;5071949;28;20059;-82
2024/02/20 08:55:34;;;;;;;0.73;0.73;;;;;;;6.50;100.00;101318.19;5086601;28;20615;-86
2024/02/20 08:57:59;;;;;;;0.93;0.90;;;;;;;6.81;100.00;101337.38;5087930;28;20043;-81
2024/02/20 09:00:25;;;;;;;0.55;0.50;;;;;;;6.55;100.00;101258.34;5100914;28;20036;-81
2024/02/20 09:02:54;;;;;;;1.10;1.08;;;;;;;7.70;100.00;101418.31;5084051;28;20420;-88
2024/02/20 09:05:20;;;;;;;1.00;1.00;;;;;;;7.75;100.00;101405.34;5080646;28;20102;-88
2024/02/20 09:07:45;;;;;;;2.00;1.90;;;;;;;7.73;100.00;101392.25;5073185;28;20554;-90
2024/02/20 09:10:11;;;;;;;0.85;0.85;;;;;;;7.65;100.00;101414.66;5064453;28;20047;-88
2024/02/20 09:12:37;;;;;;;0.98;0.98;;;;;;;7.31;100.00;101384.09;5082605;28;20558;-85
2024/02/20 09:15:02;;;;;;;1.75;1.65;;;;;;;7.72;100.00;101410.47;5084824;28;20169;-86
2024/02/20 09:17:31;;;;;;;1.77;1.67;;;;;;;7.45;100.00;101319.22;5081602;28;20407;-88
2024/02/20 09:19:57;;;;;;;0.35;0.35;;;;;;;7.67;100.00;101321.53;5066608;28;20799;-86
2024/02/20 09:22:22;;;;;;;0.40;0.40;;;;;;;7.85;100.00;101326.38;5075405;28;20110;-88
2024/02/20 09:24:48;;;;;;;2.25;2.15;;;;;;;7.92;100.00;101323.06;5078170;28;20505;-84
2024/02/20 09:27:13;;;;;;;2.17;2.05;;;;;;;8.34;100.00;101382.50;5085396;28;20040;-88
2024/02/20 09:29:39;;;;;;;1.48;1.38;;;;;;;8.47;100.00;101404.63;5083920;28;20573;-88
2024/02/20 09:32:05;;;;;;;8.90;8.57;;;;;;;8.39;100.00;101390.47;5082105;28;20040;-84
2024/02/20 09:34:30;;;;;;;13.52;12.77;;;;;;;7.91;100.00;101310.84;5089424;28;20099;-87
2024/02/20 09:36:56;;;;;;;2.65;2.55;;;;;;;8.62;100.00;101391.94;5088124;28;20099;-86
2024/02/20 09:39:25;;;;;;;0.73;0.73;;;;;;;8.41;100.00;101397.53;5091573;28;20071;-88
2024/02/20 09:41:51;;;;;;;2.47;0.77;;;;;;;8.07;100.00;101304.25;5095658;28;20504;-85
2024/02/20 09:44:18;;;;;;;2.03;1.92;;;;;;;8.63;100.00;101383.22;5095327;28;20050;-85
2024/02/20 09:46:52;;;;;;;1.67;1.58;;;;;;;8.79;100.00;101388.81;5097656;28;20036;-83
2024/02/20 09:49:18;;;;;;;1.95;1.85;;;;;;;8.04;100.00;101225.78;5096783;28;20064;-80
2024/02/20 09:51:46;;;;;;;0.77;0.77;;;;;;;8.87;100.00;101350.63;5081919;28;20047;-90
2024/02/20 09:54:13;;;;;;;6.93;6.28;;;;;;;8.86;100.00;101349.72;5080276;28;20044;-86
2024/02/20 09:56:41;;;;;;;3.63;2.90;;;;;;;8.50;100.00;101310.56;5064275;28;20047;-87
2024/02/20 09:59:07;;;;;;;0.20;0.20;;;;;;;9.01;100.00;101380.63;5074272;28;20101;-86
2024/02/20 10:01:33;;;;;;;0.40;0.40;;;;;;;8.60;100.00;101259.34;5072686;28;20437;-89
2024/02/20 10:04:03;;;;;;;0.90;0.73;;;;;;;9.35;100.00;101372.59;5069206;28;20051;-87
2024/02/20 10:06:30;;;;;;;1.10;0.98;;;;;;;8.98;100.00;101274.94;5073674;28;20045;-88
2024/02/20 10:08:56;;;;;;;0.85;0.85;;;;;;;9.08;100.00;101272.56;5064913;28;20090;-89
2024/02/20 10:11:22;;;;;;;11.15;7.50;;;;;;;9.32;100.00;101344.59;5086895;28;20349;-81
2024/02/20 10:13:51;;;;;;;0.50;0.50;;;;;;;8.93;100.00;101256.53;5083367;28;20048;-79
2024/02/20 10:16:20;;;;;;;0.60;0.60;;;;;;;9.36;100.00;101296.63;5084412;28;20043;-88
2024/02/20 10:19:02;;;;;;;1.20;1.08;;;;;;;9.83;100.00;101350.78;5077209;28;20058;-91
2024/02/20 10:21:30;;;;;;;0.30;0.30;;;;;;;9.54;100.00;101314.47;5088827;28;20039;-84
2024/02/20 10:24:08;;;;;;;5.38;4.93;;;;;;;9.48;100.00;101275.94;5086467;28;20031;-87
2024/02/20 10:26:37;;;;;;;0.30;0.30;;;;;;;9.34;100.00;101240.75;5083292;28;20055;-89
2024/02/20 10:29:06;;;;;;;0.93;0.88;;;;;;;9.46;100.00;101232.25;5081910;28;20072;-88
2024/02/20 10:31:33;;;;;;;6.30;5.32;;;;;;;9.42;100.00;101252.25;5079865;28;20467;-89
2024/02/20 10:33:59;;;;;;;0.20;0.20;;;;;;;10.07;100.00;101332.00;5086269;28;20063;-89
2024/02/20 10:36:28;;;;;;;1.45;1.38;;;;;;;9.82;100.00;101241.56;5080134;28;20036;-87
2024/02/20 10:39:07;;;;;;;1.42;1.38;;;;;;;10.39;100.00;101329.91;5074691;28;20020;-89
2024/02/20 10:41:34;;;;;;;3.78;3.47;;;;;;;10.51;100.00;101309.13;5081424;28;20044;-92
2024/02/20 10:44:00;;;;;;;9.52;5.63;;;;;;;10.33;100.00;101308.84;5081649;28;20506;-87
2024/02/20 10:46:26;;;;;;;1.50;1.30;;;;;;;10.39;100.00;101287.06;5078369;28;20101;-91
2024/02/20 10:48:58;;;;;;;8.75;4.43;;;;;;;10.52;100.00;101305.63;5098663;28;20056;-84
2024/02/20 10:51:26;;;;;;;6.75;5.22;;;;;;;11.06;100.00;101305.47;5074740;28;20059;-84
2024/02/20 10:53:57;;;;;;;1.25;1.15;;;;;;;10.93;100.00;101281.72;5077256;28;20067;-82
2024/02/20 10:56:26;;;;;;;0.90;0.47;;;;;;;11.50;100.00;101306.00;5081127;28;20048;-87
2024/02/20 10:58:52;;;;;;;5.00;2.58;;;;;;;11.40;100.00;101277.84;5086262;28;20495;-85
2024/02/20 11:01:19;;;;;;;6.13;5.53;;;;;;;11.94;100.00;101289.81;5085659;28;20079;-87
2024/02/20 11:03:47;;;;;;;20.75;16.85;;;;;;;11.47;100.00;101205.19;5078196;28;20129;-88
2024/02/20 11:06:13;;;;;;;6.35;5.53;;;;;;;11.65;100.00;101291.25;5091007;28;21008;-85
2024/02/20 11:08:39;;;;;;;5.90;5.35;;;;;;;10.94;100.00;101161.78;5085768;28;20549;-88
2024/02/20 11:11:15;;;;;;;3.30;3.00;;;;;;;11.44;100.00;101157.88;5068697;28;20188;-81
2024/02/20 11:13:42;;;;;;;3.83;3.53;;;;;;;11.88;100.00;101258.19;5062727;28;20040;-87
2024/02/20 11:16:13;;;;;;;7.72;6.30;;;;;;;11.99;100.00;101195.16;5091033;28;20526;-86
2024/02/20 11:18:53;;;;;;;4.15;3.78;;;;;;;12.96;100.00;101267.59;5086940;28;20128;-87
2024/02/20 11:21:29;;;;;;;3.60;2.83;;;;;;;12.48;100.00;101250.72;5088855;28;20056;-87